createdAt,value
2023-05-21T16:33:00.683Z,421.3571
2023-05-21T16:34:03.595Z,431.9231
2023-05-21T16:35:06.538Z,434.4615
2023-05-21T16:36:09.487Z,434.9231
2023-05-21T16:37:12.455Z,439.9231
2023-05-21T16:38:15.435Z,441.6154
2023-05-21T16:39:18.376Z,448.1538
2023-05-21T16:40:21.318Z,467.5385
2023-05-21T16:41:24.306Z,480.1538
2023-05-21T16:42:27.323Z,483.4615
2023-05-21T16:43:30.223Z,486.6154
2023-05-21T16:44:33.172Z,481.3077
2023-05-21T16:45:36.339Z,476.5385
2023-05-21T16:46:39.174Z,483.2308
2023-05-21T16:47:42.181Z,492.4615
2023-05-21T16:48:44.995Z,492.3846
2023-05-21T16:49:48.007Z,494.0000
2023-05-21T16:50:50.933Z,504.8462
2023-05-21T16:51:53.897Z,503.0000
2023-05-21T16:52:56.837Z,499.4615
2023-05-21T16:53:59.803Z,498.2308
2023-05-21T16:55:02.790Z,504.7692
2023-05-21T16:56:05.781Z,496.9231
2023-05-21T16:57:08.679Z,480.6154
2023-05-21T16:58:11.643Z,484.3846
2023-05-21T16:59:14.605Z,490.1538
2023-05-21T17:00:17.580Z,493.9231
2023-05-21T17:01:20.628Z,495.5385
2023-05-21T17:02:23.560Z,494.0769
2023-05-21T17:03:26.477Z,491.0000
2023-05-21T17:04:29.453Z,496.5385
2023-05-21T17:05:32.388Z,505.6154
2023-05-21T17:06:35.314Z,510.2308
2023-05-21T17:07:38.274Z,511.6154
2023-05-21T17:08:41.245Z,511.8462
2023-05-21T17:09:44.256Z,505.8462
2023-05-21T17:10:47.419Z,503.5385
2023-05-21T17:11:50.140Z,506.7692
2023-05-21T17:12:53.129Z,508.0769
2023-05-21T17:13:56.053Z,506.0769
2023-05-21T17:14:59.017Z,504.7692
2023-05-21T17:16:02.001Z,500.9231
2023-05-21T17:17:04.927Z,498.2308
2023-05-21T17:18:07.932Z,494.9231
2023-05-21T17:19:10.894Z,488.6923
2023-05-21T17:20:13.787Z,487.6154
2023-05-21T17:21:16.767Z,488.8462
2023-05-21T17:22:19.894Z,487.7692
2023-05-21T17:23:22.765Z,485.5385
2023-05-21T17:24:25.615Z,485.4615
2023-05-21T17:25:28.572Z,489.6154
2023-05-21T17:26:31.568Z,499.3077
2023-05-21T17:27:34.509Z,502.0769
2023-05-21T17:28:37.453Z,501.6923
2023-05-21T17:29:40.403Z,498.6154
2023-05-21T17:30:43.373Z,499.9231
2023-05-21T17:31:46.366Z,502.0000
2023-05-21T17:32:49.309Z,507.3846
2023-05-21T17:33:52.261Z,513.4615
2023-05-21T17:34:55.203Z,524.1539
2023-05-21T17:35:58.180Z,540.3077
2023-05-21T17:37:01.111Z,540.3846
2023-05-21T17:38:04.130Z,539.1539
2023-05-21T17:39:07.051Z,542.9231
2023-05-21T17:40:09.999Z,548.7692
2023-05-21T17:41:12.952Z,549.0769
2023-05-21T17:42:15.902Z,543.6154
2023-05-21T17:43:18.858Z,537.9231
2023-05-21T17:44:21.852Z,535.2308
2023-05-21T17:45:24.782Z,537.9231
2023-05-21T17:46:27.768Z,540.4615
2023-05-21T17:47:30.708Z,539.0769
2023-05-21T17:48:33.645Z,536.3077
2023-05-21T17:49:36.683Z,534.4615
2023-05-21T17:50:39.557Z,536.7692
2023-05-21T17:51:42.516Z,540.0000
2023-05-21T17:52:45.501Z,540.1539
2023-05-21T17:53:48.432Z,536.8461
2023-05-21T17:54:51.376Z,529.6923
2023-05-21T17:55:54.551Z,521.1539
2023-05-21T17:56:57.290Z,522.3846
2023-05-21T17:58:00.233Z,520.6154
2023-05-21T17:59:03.195Z,520.6923
2023-05-21T18:00:06.141Z,521.9231
2023-05-21T18:01:09.125Z,525.4615
2023-05-21T18:02:12.085Z,528.5385
2023-05-21T18:03:15.103Z,533.9231
2023-05-21T18:04:18.051Z,538.7692
2023-05-21T18:05:20.932Z,532.2308
2023-05-21T18:06:23.914Z,522.6154
2023-05-21T18:07:26.846Z,518.8461
2023-05-21T18:08:29.878Z,520.6923
2023-05-21T18:09:32.759Z,524.9231
2023-05-21T18:10:35.712Z,529.7692
2023-05-21T18:11:38.693Z,532.0000
2023-05-21T18:12:41.634Z,534.5385
2023-05-21T18:13:44.599Z,537.1539
2023-05-21T18:14:47.675Z,540.0769
2023-05-21T18:15:50.509Z,537.3846
2023-05-21T18:16:53.541Z,535.3077
2023-05-21T18:17:56.541Z,535.3846
2023-05-21T18:18:59.449Z,531.8461
2023-05-21T18:20:02.357Z,532.6154
2023-05-21T18:21:05.275Z,534.1539
2023-05-21T18:22:08.256Z,536.6154
2023-05-21T18:23:11.197Z,538.6154
2023-05-21T18:24:14.160Z,538.0000
2023-05-21T18:25:17.124Z,537.8461
2023-05-21T18:26:20.602Z,538.3077
2023-05-21T18:27:23.078Z,539.0000
2023-05-21T18:28:26.036Z,540.0000
2023-05-21T18:29:28.911Z,542.4615
2023-05-21T18:30:31.875Z,539.1539
2023-05-21T18:31:34.915Z,530.9231
2023-05-21T18:32:37.833Z,526.7692
2023-05-21T18:33:40.734Z,529.3846
2023-05-21T18:34:43.706Z,538.2308
2023-05-21T18:35:46.714Z,542.3077
2023-05-21T18:36:49.600Z,542.0769
2023-05-21T18:37:52.573Z,540.1539
2023-05-21T18:38:55.533Z,541.5385
2023-05-21T18:39:58.488Z,543.6923
2023-05-21T18:41:01.421Z,542.0769
2023-05-21T18:42:12.832Z,542.8461
2023-05-21T18:43:07.316Z,540.6154
2023-05-21T18:44:10.341Z,538.4615
2023-05-21T18:45:13.226Z,537.9231
2023-05-21T18:46:16.247Z,534.3077
2023-05-21T18:47:19.142Z,531.6923
2023-05-21T18:48:22.093Z,528.9231
2023-05-21T18:49:25.043Z,528.2308
2023-05-21T18:50:27.961Z,527.2308
2023-05-21T18:51:30.926Z,525.2308
2023-05-21T18:52:33.870Z,524.6923
2023-05-21T18:53:36.811Z,524.0000
2023-05-21T18:54:39.752Z,524.9231
2023-05-21T18:55:42.727Z,526.2308
2023-05-21T18:56:45.666Z,527.0769
2023-05-21T18:57:48.607Z,528.1539
2023-05-21T18:58:51.556Z,529.2308
2023-05-21T18:59:54.511Z,531.9231
2023-05-21T19:00:57.450Z,534.8461
2023-05-21T19:02:00.451Z,535.1539
2023-05-21T19:03:03.408Z,535.0000
2023-05-21T19:04:06.326Z,535.7692
2023-05-21T19:05:09.333Z,535.4615
2023-05-21T19:06:12.322Z,536.2308
2023-05-21T19:07:15.139Z,538.5385
2023-05-21T19:08:18.086Z,539.9231
2023-05-21T19:09:21.115Z,540.0769
2023-05-21T19:10:24.089Z,540.4615
2023-05-21T19:11:27.072Z,541.7692
2023-05-21T19:12:29.902Z,542.3846
2023-05-21T19:13:32.928Z,544.5385
2023-05-21T19:14:35.798Z,547.0000
2023-05-21T19:15:38.882Z,548.5385
2023-05-21T19:16:41.817Z,547.8461
2023-05-21T19:17:44.652Z,549.0000
2023-05-21T19:18:47.646Z,549.2308
2023-05-21T19:19:50.599Z,554.4615
2023-05-21T19:20:53.491Z,558.6154
2023-05-21T19:21:56.501Z,558.3077
2023-05-21T19:22:59.421Z,558.3846
2023-05-21T19:24:04.853Z,561.6923
2023-05-21T19:25:05.314Z,559.4615
2023-05-21T19:26:08.270Z,555.8461
2023-05-21T19:27:11.332Z,553.5385
2023-05-21T19:28:14.232Z,553.3077
2023-05-21T19:29:17.138Z,552.0769
2023-05-21T19:30:20.170Z,553.3846
2023-05-21T19:31:23.276Z,553.7692
2023-05-21T19:32:26.055Z,554.0000
2023-05-21T19:33:29.049Z,555.6923
2023-05-21T19:34:32.031Z,556.3846
2023-05-21T19:35:34.944Z,560.3846
2023-05-21T19:36:51.647Z,567.1539
2023-05-21T19:37:40.734Z,570.7692
2023-05-21T19:38:43.677Z,571.8461
2023-05-21T19:39:46.696Z,573.7692
2023-05-21T19:40:49.575Z,573.6154
2023-05-21T19:41:52.549Z,578.5385
2023-05-21T19:42:55.490Z,583.6154
2023-05-21T19:43:58.436Z,585.5385
2023-05-21T19:45:01.363Z,581.8461
2023-05-21T19:46:04.383Z,579.2308
2023-05-21T19:47:07.286Z,579.6923
2023-05-21T19:48:10.275Z,579.0000
2023-05-21T19:49:13.314Z,576.6923
2023-05-21T19:50:16.214Z,577.4615
2023-05-21T19:51:19.138Z,579.0769
2023-05-21T19:52:22.087Z,581.4615
2023-05-21T19:53:24.978Z,582.6923
2023-05-21T19:54:27.969Z,584.9231
2023-05-21T19:55:30.883Z,588.4615
2023-05-21T19:56:33.847Z,592.2308
2023-05-21T19:57:36.778Z,587.6154
2023-05-21T19:58:39.735Z,585.0000
2023-05-21T19:59:42.693Z,585.1539
2023-05-21T20:00:45.957Z,588.0000
2023-05-21T20:01:48.602Z,594.3846
2023-05-21T20:02:51.609Z,606.6154
2023-05-21T20:03:54.604Z,616.6154
2023-05-21T20:04:57.563Z,631.3077
2023-05-21T20:06:00.404Z,648.3077
2023-05-21T20:07:03.352Z,654.6154
2023-05-21T20:08:06.334Z,654.5385
2023-05-21T20:09:09.283Z,653.2308
2023-05-21T20:10:12.287Z,650.6923
2023-05-21T20:11:15.157Z,652.3846
2023-05-21T20:12:18.064Z,657.7692
2023-05-21T20:13:21.238Z,657.0769
2023-05-21T20:14:23.957Z,650.7692
2023-05-21T20:15:27.072Z,644.7692
2023-05-21T20:16:29.864Z,646.0769
2023-05-21T20:17:32.937Z,640.3846
2023-05-21T20:18:35.765Z,638.3846
2023-05-21T20:19:38.768Z,634.6154
2023-05-21T20:20:41.843Z,631.9231
2023-05-21T20:21:44.600Z,632.4615
2023-05-21T20:22:47.551Z,639.0000
2023-05-21T20:23:50.841Z,642.0769
2023-05-21T20:24:53.577Z,644.3846
2023-05-21T20:25:56.401Z,647.8461
2023-05-21T20:26:59.349Z,652.2308
2023-05-21T20:28:02.302Z,656.2308
2023-05-21T20:29:05.256Z,660.8461
2023-05-21T20:30:08.511Z,661.6923
2023-05-21T20:31:11.239Z,664.1539
2023-05-21T20:32:14.080Z,665.3077
2023-05-21T20:33:17.457Z,667.1539
2023-05-21T20:34:19.996Z,670.4615
2023-05-21T20:35:22.967Z,670.4615
2023-05-21T20:36:25.987Z,665.9231
2023-05-21T20:37:28.927Z,656.6923
2023-05-21T20:38:31.934Z,656.0000
2023-05-21T20:39:34.849Z,659.0000
2023-05-21T20:40:37.916Z,663.3077
2023-05-21T20:41:40.749Z,664.3846
2023-05-21T20:42:43.701Z,663.0769
2023-05-21T20:43:46.642Z,660.3077
2023-05-21T20:44:49.602Z,658.4615
2023-05-21T20:45:52.582Z,658.4615
2023-05-21T20:46:55.563Z,651.6154
2023-05-21T20:47:58.629Z,651.0000
2023-05-21T20:49:01.537Z,648.7692
2023-05-21T20:50:04.391Z,652.0769
2023-05-21T20:51:07.384Z,653.0000
2023-05-21T20:52:10.318Z,653.8461
2023-05-21T20:53:13.239Z,650.7692
2023-05-21T20:54:16.692Z,652.9231
2023-05-21T20:55:19.169Z,652.0000
2023-05-21T20:56:39.896Z,653.7692
2023-05-21T20:57:25.163Z,655.9231
2023-05-21T20:58:28.021Z,666.7692
2023-05-21T20:59:30.951Z,679.0000
2023-05-21T21:00:33.926Z,683.2308
2023-05-21T21:01:36.875Z,680.9231
2023-05-21T21:02:40.024Z,674.3846
2023-05-21T21:03:42.846Z,668.6923
2023-05-21T21:04:45.741Z,661.0000
2023-05-21T21:05:48.674Z,663.8461
2023-05-21T21:06:51.641Z,662.3077
2023-05-21T21:07:55.887Z,657.0000
2023-05-21T21:08:57.564Z,657.6923
2023-05-21T21:10:00.571Z,659.5385
2023-05-21T21:11:03.480Z,662.3846
2023-05-21T21:12:17.861Z,669.6154
2023-05-21T21:13:09.397Z,692.8461
2023-05-21T21:14:12.317Z,705.6154
2023-05-21T21:15:15.270Z,716.3846
2023-05-21T21:16:18.281Z,716.3077
2023-05-21T21:17:21.278Z,707.6923
2023-05-21T21:18:24.130Z,695.5385
2023-05-21T21:19:27.259Z,689.3077
2023-05-21T21:20:30.181Z,689.0769
2023-05-21T21:21:32.980Z,690.3846
2023-05-21T21:22:35.910Z,698.1539
2023-05-21T21:23:38.866Z,704.6923
2023-05-21T21:24:41.824Z,707.0769
2023-05-21T21:25:44.766Z,707.5385
2023-05-21T21:26:47.705Z,700.3846
2023-05-21T21:27:50.658Z,686.9231
2023-05-21T21:28:53.606Z,678.6154
2023-05-21T21:29:56.553Z,675.5385
2023-05-21T21:30:59.517Z,679.7692
2023-05-21T21:32:02.575Z,680.9231
2023-05-21T21:33:05.575Z,672.9231
2023-05-21T21:34:08.406Z,668.6154
2023-05-21T21:35:11.309Z,661.2308
2023-05-21T21:36:14.429Z,662.0000
2023-05-21T21:37:17.187Z,666.0000
2023-05-21T21:38:20.165Z,673.4615
2023-05-21T21:39:23.097Z,683.4615
2023-05-21T21:40:26.034Z,691.9231
2023-05-21T21:41:28.973Z,693.6923
2023-05-21T21:42:32.031Z,688.6923
2023-05-21T21:43:34.884Z,682.7692
2023-05-21T21:44:37.828Z,677.7692
2023-05-21T21:45:40.776Z,675.6923
2023-05-21T21:46:43.739Z,674.3077
2023-05-21T21:47:46.814Z,672.3846
2023-05-21T21:48:49.633Z,665.6154
2023-05-21T21:49:52.570Z,658.3846
2023-05-21T21:50:55.723Z,655.3077
2023-05-21T21:51:58.478Z,653.6923
2023-05-21T21:53:01.420Z,654.2308
2023-05-21T21:54:04.386Z,654.5385
2023-05-21T21:55:07.347Z,660.1539
2023-05-21T21:56:10.262Z,668.0000
2023-05-21T21:57:13.216Z,670.0769
2023-05-21T21:58:16.163Z,673.7692
2023-05-21T21:59:19.129Z,673.6923
2023-05-21T22:00:22.075Z,673.2308
2023-05-21T22:01:25.118Z,669.9231
2023-05-21T22:02:28.022Z,669.5385
2023-05-21T22:03:30.919Z,670.8461
2023-05-21T22:04:33.905Z,663.9231
2023-05-21T22:05:36.818Z,661.3077
2023-05-21T22:06:39.780Z,662.7692
2023-05-21T22:07:42.737Z,660.8461
2023-05-21T22:08:45.693Z,659.3077
2023-05-21T22:09:48.618Z,661.0769
2023-05-21T22:10:51.568Z,671.5385
2023-05-21T22:11:54.516Z,668.9231
2023-05-21T22:12:57.433Z,664.4615
2023-05-21T22:14:00.436Z,661.6154
2023-05-21T22:15:03.345Z,660.1539
2023-05-21T22:16:06.335Z,660.9231
2023-05-21T22:17:09.352Z,663.4615
2023-05-21T22:18:12.250Z,664.6154
2023-05-21T22:19:15.163Z,663.8461
2023-05-21T22:20:18.087Z,663.0769
2023-05-21T22:21:21.021Z,659.8461
2023-05-21T22:22:23.973Z,657.6923
2023-05-21T22:23:26.913Z,655.0769
2023-05-21T22:24:32.987Z,657.6923
2023-05-21T22:25:32.850Z,659.0769
2023-05-21T22:26:35.790Z,660.2308
2023-05-21T22:27:38.764Z,667.8461
2023-05-21T22:28:41.676Z,678.7692
2023-05-21T22:29:44.620Z,679.3846
2023-05-21T22:30:47.600Z,674.2308
2023-05-21T22:31:50.544Z,664.3846
2023-05-21T22:32:53.511Z,654.5385
2023-05-21T22:33:56.438Z,657.1539
2023-05-21T22:34:59.382Z,660.3846
2023-05-21T22:36:02.331Z,669.6154
2023-05-21T22:37:05.272Z,665.6154
2023-05-21T22:38:08.218Z,661.0769
2023-05-21T22:39:11.355Z,668.1539
2023-05-21T22:40:14.102Z,662.0000
2023-05-21T22:41:17.078Z,656.0769
2023-05-21T22:42:20.019Z,655.6923
2023-05-21T22:43:22.996Z,674.5385
2023-05-21T22:44:25.921Z,681.0000
2023-05-21T22:45:28.892Z,688.4615
2023-05-21T22:46:31.844Z,688.5385
2023-05-21T22:47:34.830Z,683.4615
2023-05-21T22:48:37.713Z,666.4615
2023-05-21T22:49:40.750Z,657.0769
2023-05-21T22:50:43.623Z,658.7692
2023-05-21T22:51:46.598Z,666.5385
2023-05-21T22:52:49.522Z,674.0769
2023-05-21T22:53:52.499Z,666.4615
2023-05-21T22:54:55.420Z,653.5385
2023-05-21T22:55:58.368Z,657.2308
2023-05-21T22:57:01.318Z,657.1539
2023-05-21T22:58:04.287Z,656.0769
2023-05-21T22:59:07.223Z,657.2308
2023-05-21T23:00:10.185Z,663.6154
2023-05-21T23:01:13.115Z,665.6154
2023-05-21T23:02:16.173Z,667.9231
2023-05-21T23:03:18.998Z,670.7692
2023-05-21T23:04:32.136Z,673.1539
2023-05-21T23:05:24.932Z,673.3846
2023-05-21T23:06:27.901Z,675.6154
2023-05-21T23:07:30.825Z,676.9231
2023-05-21T23:08:33.776Z,677.9231
2023-05-21T23:09:36.749Z,665.9231
2023-05-21T23:10:39.978Z,647.1539
2023-05-21T23:11:42.646Z,640.8461
2023-05-21T23:12:45.620Z,642.0769
2023-05-21T23:13:48.577Z,648.7692
2023-05-21T23:14:51.516Z,654.3077
2023-05-21T23:15:54.534Z,655.7692
2023-05-21T23:16:57.401Z,654.6923
2023-05-21T23:18:00.419Z,651.0769
2023-05-21T23:19:03.369Z,651.2308
2023-05-21T23:20:06.300Z,662.3846
2023-05-21T23:21:09.281Z,664.6923
2023-05-21T23:22:12.204Z,666.3846
2023-05-21T23:23:15.116Z,661.3077
2023-05-21T23:24:18.079Z,653.2308
2023-05-21T23:25:21.106Z,649.0000
2023-05-21T23:26:23.977Z,654.4615
2023-05-21T23:27:26.936Z,662.1539
2023-05-21T23:28:29.870Z,657.3846
2023-05-21T23:29:32.835Z,651.9231
2023-05-21T23:30:35.825Z,648.1539
2023-05-21T23:31:38.743Z,643.9231
2023-05-21T23:32:41.726Z,637.3077
2023-05-21T23:33:44.633Z,627.7692
2023-05-21T23:34:47.610Z,620.8461
2023-05-21T23:35:50.617Z,619.3846
2023-05-21T23:36:53.498Z,615.5385
2023-05-21T23:37:56.464Z,612.3846
2023-05-21T23:38:59.397Z,617.4615
2023-05-21T23:40:02.360Z,631.1539
2023-05-21T23:41:05.279Z,647.7692
2023-05-21T23:42:08.242Z,658.8461
2023-05-21T23:43:11.182Z,664.2308
2023-05-21T23:44:14.199Z,666.3077
2023-05-21T23:45:17.097Z,659.5385
2023-05-21T23:46:20.106Z,650.7692
2023-05-21T23:47:22.997Z,646.3077
2023-05-21T23:48:25.978Z,640.9231
2023-05-21T23:49:28.886Z,632.9231
2023-05-21T23:50:31.864Z,632.4615
2023-05-21T23:51:34.826Z,635.4615
2023-05-21T23:52:37.781Z,636.6154
2023-05-21T23:53:40.701Z,638.3077
2023-05-21T23:54:43.655Z,642.7692
2023-05-21T23:55:46.599Z,641.5385
2023-05-21T23:56:49.569Z,638.1539
2023-05-21T23:57:52.508Z,643.6154
2023-05-21T23:58:55.469Z,640.3077
2023-05-21T23:59:58.400Z,631.0769
